Time;durP1;ratioP1;P1;durP2;ratioP2;P2;SDS_P1;SDS_P2;PMS_P1;PMS_P2;Temp;Humidity;BMP_temperature;BMP_pressure;BME280_temperature;BME280_humidity;BME280_pressure;Samples;Min_cycle;Max_cycle;Signal;HPM_P1;HPM_P2
2022/04/12 00:00:21;;;;;;;3.40;2.92;;;;;;;;;;4973849;28;20092;-90
2022/04/12 00:02:47;;;;;;;4.40;2.80;;;;;;;;;;4988249;28;20030;-86
2022/04/12 00:05:12;;;;;;;4.13;2.83;;;;;;;;;;4985664;28;20140;-86
2022/04/12 00:07:43;;;;;;;4.05;2.40;;;;;;;;;;4985722;28;20046;-85
2022/04/12 00:10:10;;;;;;;3.25;2.53;;;;;;;;;;4966138;28;20057;-84
2022/04/12 00:12:37;;;;;;;4.95;3.58;;;;;;;;;;4974297;28;20042;-84
2022/04/12 00:15:06;;;;;;;4.82;3.00;;;;;;;;;;4967588;28;20035;-85
2022/04/12 00:20:16;;;;;;;4.03;2.78;;;;;;;;;;4983369;28;20049;-84
2022/04/12 00:22:42;;;;;;;3.85;2.70;;;;;;;;;;4966261;28;20443;-86
2022/04/12 00:25:09;;;;;;;3.13;2.42;;;;;;;;;;4990571;28;20043;-86
2022/04/12 00:27:40;;;;;;;6.05;2.97;;;;;;;;;;4984436;28;20042;-84
2022/04/12 00:30:08;;;;;;;4.30;2.53;;;;;;;;;;4966113;28;20703;-86
2022/04/12 00:32:33;;;;;;;3.28;2.47;;;;;;;;;;4988214;28;20027;-85
2022/04/12 00:35:00;;;;;;;3.42;2.17;;;;;;;;;;4981978;28;20467;-85
2022/04/12 00:37:26;;;;;;;3.72;2.97;;;;;;;;;;4976790;28;20031;-88
2022/04/12 00:39:52;;;;;;;4.00;2.50;;;;;;;;;;4967956;28;20030;-87
2022/04/12 00:42:18;;;;;;;4.82;3.58;;;;;;;;;;4992625;28;20034;-86
2022/04/12 00:44:43;;;;;;;4.50;2.47;;;;;;;;;;4967228;28;20050;-85
2022/04/12 00:47:09;;;;;;;3.38;2.42;;;;;;;;;;4980847;28;20041;-85
2022/04/12 00:49:34;;;;;;;4.70;2.67;;;;;;;;;;4986406;28;20109;-87
2022/04/12 00:52:00;;;;;;;4.10;2.72;;;;;;;;;;4969287;28;20067;-84
2022/04/12 00:54:26;;;;;;;4.72;2.92;;;;;;;;;;4971753;28;20037;-85
2022/04/12 00:56:52;;;;;;;4.93;3.08;;;;;;;;;;4972624;28;20130;-85
2022/04/12 00:59:19;;;;;;;7.47;2.25;;;;;;;;;;4990706;28;20037;-88
2022/04/12 01:01:44;;;;;;;5.35;3.05;;;;;;;;;;4972958;28;20047;-86
2022/04/12 01:04:10;;;;;;;3.53;2.67;;;;;;;;;;4986216;28;20513;-84
2022/04/12 01:06:36;;;;;;;5.78;2.70;;;;;;;;;;4986459;28;20545;-84
2022/04/12 01:09:05;;;;;;;3.75;2.33;;;;;;;;;;4987741;28;20052;-85
2022/04/12 01:11:32;;;;;;;3.53;2.47;;;;;;;;;;4969613;28;20121;-84
2022/04/12 01:13:58;;;;;;;4.00;2.28;;;;;;;;;;4972634;28;20042;-86
2022/04/12 01:16:24;;;;;;;3.53;2.40;;;;;;;;;;4974451;28;20125;-87
2022/04/12 01:18:49;;;;;;;4.88;2.45;;;;;;;;;;4972043;28;20038;-86
2022/04/12 01:21:14;;;;;;;5.10;2.95;;;;;;;;;;4997202;28;20034;-85
2022/04/12 01:23:59;;;;;;;3.72;3.25;;;;;;;;;;4978911;28;20042;-84
2022/04/12 01:26:25;;;;;;;4.10;2.90;;;;;;;;;;4969962;28;20551;-87
2022/04/12 01:28:50;;;;;;;6.53;3.00;;;;;;;;;;4964173;28;20034;-83
2022/04/12 01:31:16;;;;;;;4.38;2.50;;;;;;;;;;4974139;28;20042;-85
2022/04/12 01:33:41;;;;;;;3.17;2.22;;;;;;;;;;4976808;28;20042;-85
2022/04/12 01:36:10;;;;;;;3.78;3.40;;;;;;;;;;4986399;28;20031;-87
2022/04/12 01:38:37;;;;;;;4.70;2.28;;;;;;;;;;4961118;28;20079;-85
2022/04/12 01:41:02;;;;;;;3.95;2.50;;;;;;;;;;4970191;28;20624;-86
2022/04/12 01:43:28;;;;;;;4.60;2.35;;;;;;;;;;4978571;28;20055;-87
2022/04/12 01:45:54;;;;;;;4.90;3.10;;;;;;;;;;4990861;28;20033;-85
2022/04/12 01:48:20;;;;;;;4.57;2.90;;;;;;;;;;4989423;28;20101;-85
2022/04/12 01:50:45;;;;;;;4.15;2.55;;;;;;;;;;4971143;28;20041;-87
2022/04/12 01:53:12;;;;;;;3.17;1.92;;;;;;;;;;4965058;28;20038;-85
2022/04/12 01:55:38;;;;;;;5.45;2.65;;;;;;;;;;4966276;28;20038;-83
2022/04/12 01:58:04;;;;;;;3.38;2.60;;;;;;;;;;4982328;28;20041;-86
2022/04/12 02:00:30;;;;;;;5.97;3.38;;;;;;;;;;4965619;28;20487;-85
2022/04/12 02:02:56;;;;;;;4.60;2.72;;;;;;;;;;4993673;28;20034;-86
2022/04/12 02:05:21;;;;;;;4.80;2.92;;;;;;;;;;4964344;28;20030;-88
2022/04/12 02:07:47;;;;;;;3.95;3.28;;;;;;;;;;4963792;28;20089;-87
2022/04/12 02:10:13;;;;;;;4.53;3.30;;;;;;;;;;4984457;28;20034;-87
2022/04/12 02:12:39;;;;;;;5.18;2.78;;;;;;;;;;4978390;28;20040;-85
2022/04/12 02:15:05;;;;;;;4.10;2.92;;;;;;;;;;4968069;28;20047;-83
2022/04/12 02:17:30;;;;;;;7.18;2.92;;;;;;;;;;4968346;28;20034;-84
2022/04/12 02:19:56;;;;;;;5.47;3.00;;;;;;;;;;4963449;28;20034;-84
2022/04/12 02:22:22;;;;;;;3.22;2.42;;;;;;;;;;4967172;28;20050;-84
2022/04/12 02:24:47;;;;;;;5.07;2.90;;;;;;;;;;4988347;28;20041;-86
2022/04/12 02:27:13;;;;;;;3.42;1.98;;;;;;;;;;4971383;28;20590;-86
2022/04/12 02:29:39;;;;;;;4.10;2.50;;;;;;;;;;4971962;28;20124;-83
2022/04/12 02:32:06;;;;;;;3.80;2.78;;;;;;;;;;4970903;28;20491;-87
2022/04/12 02:34:32;;;;;;;6.05;2.50;;;;;;;;;;4967141;28;20042;-85
2022/04/12 02:36:57;;;;;;;2.72;1.88;;;;;;;;;;4973157;28;20036;-83
2022/04/12 02:39:23;;;;;;;2.88;1.88;;;;;;;;;;4965732;28;20048;-86
2022/04/12 02:41:48;;;;;;;3.22;2.10;;;;;;;;;;4966958;28;20479;-86
2022/04/12 02:44:14;;;;;;;3.70;2.40;;;;;;;;;;4964467;28;20030;-86
2022/04/12 02:46:40;;;;;;;2.78;2.00;;;;;;;;;;4984994;28;20030;-84
2022/04/12 02:49:06;;;;;;;3.03;2.22;;;;;;;;;;4980492;28;20047;-85
2022/04/12 02:51:31;;;;;;;3.53;2.28;;;;;;;;;;4964785;28;20038;-86
2022/04/12 02:53:57;;;;;;;2.65;2.03;;;;;;;;;;4972419;28;20030;-85
2022/04/12 02:56:22;;;;;;;3.08;1.92;;;;;;;;;;4987660;28;20030;-88
2022/04/12 02:58:48;;;;;;;2.67;1.77;;;;;;;;;;4968845;28;20039;-85
2022/04/12 03:01:13;;;;;;;3.10;1.73;;;;;;;;;;4984993;28;20109;-86
2022/04/12 03:03:38;;;;;;;2.28;1.65;;;;;;;;;;4965838;28;20035;-87
2022/04/12 03:06:04;;;;;;;2.80;1.92;;;;;;;;;;4971767;28;20026;-85
2022/04/12 03:08:29;;;;;;;2.90;2.00;;;;;;;;;;4969510;28;20046;-85
2022/04/12 03:10:55;;;;;;;4.47;2.38;;;;;;;;;;4973703;28;20045;-86
2022/04/12 03:13:20;;;;;;;2.90;1.35;;;;;;;;;;4969775;28;20058;-86
2022/04/12 03:15:46;;;;;;;1.88;1.50;;;;;;;;;;4983311;28;20031;-88
2022/04/12 03:18:11;;;;;;;2.25;1.40;;;;;;;;;;4975288;28;20045;-85
2022/04/12 03:20:38;;;;;;;2.58;1.60;;;;;;;;;;4960698;28;20042;-86
2022/04/12 03:23:03;;;;;;;3.17;2.08;;;;;;;;;;4983221;28;20033;-86
2022/04/12 03:25:29;;;;;;;4.32;1.90;;;;;;;;;;4987022;28;20371;-85
2022/04/12 03:27:54;;;;;;;2.78;1.50;;;;;;;;;;4963536;28;20122;-84
2022/04/12 03:30:20;;;;;;;2.55;1.83;;;;;;;;;;4968140;28;20041;-86
2022/04/12 03:32:45;;;;;;;2.53;1.75;;;;;;;;;;4991411;28;20073;-86
2022/04/12 03:35:11;;;;;;;2.13;1.33;;;;;;;;;;4984483;28;20034;-88
2022/04/12 03:37:36;;;;;;;2.25;1.27;;;;;;;;;;4985928;28;20504;-86
2022/04/12 03:40:02;;;;;;;2.20;1.42;;;;;;;;;;4990124;28;20113;-89
2022/04/12 03:42:28;;;;;;;1.95;1.30;;;;;;;;;;4984429;28;20387;-88
2022/04/12 03:44:53;;;;;;;1.67;1.05;;;;;;;;;;4966929;28;20122;-87
2022/04/12 03:47:19;;;;;;;2.20;1.40;;;;;;;;;;4986132;28;20081;-88
2022/04/12 03:49:44;;;;;;;1.95;1.50;;;;;;;;;;4969211;28;20045;-86
2022/04/12 03:52:10;;;;;;;1.63;1.30;;;;;;;;;;4967259;28;20031;-84
2022/04/12 03:54:36;;;;;;;3.42;1.67;;;;;;;;;;4967065;28;20045;-86
2022/04/12 03:57:02;;;;;;;4.07;1.50;;;;;;;;;;4984712;28;20038;-83
2022/04/12 03:59:27;;;;;;;2.70;1.55;;;;;;;;;;4988066;28;20026;-87
2022/04/12 04:01:53;;;;;;;3.95;1.95;;;;;;;;;;4970527;28;20135;-85
2022/04/12 04:04:19;;;;;;;2.90;1.45;;;;;;;;;;4974234;28;20036;-87
2022/04/12 04:06:44;;;;;;;2.00;1.60;;;;;;;;;;4979680;28;20042;-83
2022/04/12 04:09:10;;;;;;;2.75;1.60;;;;;;;;;;4982237;28;20030;-86
2022/04/12 04:11:38;;;;;;;3.42;1.35;;;;;;;;;;4972371;28;20063;-88
2022/04/12 04:14:05;;;;;;;3.47;1.65;;;;;;;;;;4968022;28;20416;-88
2022/04/12 04:16:32;;;;;;;2.00;1.33;;;;;;;;;;4987748;28;20045;-85
2022/04/12 04:18:58;;;;;;;2.78;1.30;;;;;;;;;;4970939;28;20061;-88
2022/04/12 04:21:24;;;;;;;3.75;2.38;;;;;;;;;;4988074;28;20066;-86
2022/04/12 04:23:54;;;;;;;2.13;1.40;;;;;;;;;;4982055;28;20042;-88
2022/04/12 04:26:19;;;;;;;3.92;2.30;;;;;;;;;;4988891;28;20599;-83
2022/04/12 04:28:47;;;;;;;1.85;1.40;;;;;;;;;;4964779;28;20122;-85
2022/04/12 04:31:12;;;;;;;4.78;2.80;;;;;;;;;;4964910;28;20031;-85
2022/04/12 04:33:38;;;;;;;2.38;2.05;;;;;;;;;;4973273;28;20117;-84
2022/04/12 04:36:04;;;;;;;3.45;1.80;;;;;;;;;;4966925;28;20114;-83
2022/04/12 04:38:29;;;;;;;2.13;1.52;;;;;;;;;;4964888;28;20143;-85
2022/04/12 04:40:55;;;;;;;3.90;3.17;;;;;;;;;;4988313;28;20055;-86
2022/04/12 04:43:20;;;;;;;4.85;3.20;;;;;;;;;;4962140;28;20035;-83
2022/04/12 04:45:46;;;;;;;10.68;4.60;;;;;;;;;;4980430;28;20510;-83
2022/04/12 04:48:11;;;;;;;6.43;4.10;;;;;;;;;;4989768;28;20038;-84
2022/04/12 04:50:37;;;;;;;6.82;3.85;;;;;;;;;;4987311;28;20494;-83
2022/04/12 04:53:05;;;;;;;8.93;4.70;;;;;;;;;;4974128;28;20034;-84
2022/04/12 04:55:32;;;;;;;8.57;5.68;;;;;;;;;;4983285;28;20541;-84
2022/04/12 04:57:59;;;;;;;11.05;5.40;;;;;;;;;;4984628;28;20038;-83
2022/04/12 05:00:29;;;;;;;6.88;4.47;;;;;;;;;;4969718;28;20038;-85
2022/04/12 05:02:55;;;;;;;9.23;4.13;;;;;;;;;;4989137;28;20171;-82
2022/04/12 05:05:21;;;;;;;5.78;4.15;;;;;;;;;;4983079;28;20039;-83
2022/04/12 05:07:48;;;;;;;6.20;3.95;;;;;;;;;;4991803;28;20065;-84
2022/04/12 05:10:20;;;;;;;7.85;4.80;;;;;;;;;;4988102;28;20132;-85
2022/04/12 05:12:46;;;;;;;13.77;4.85;;;;;;;;;;4984846;28;20110;-85
2022/04/12 05:15:12;;;;;;;10.25;5.63;;;;;;;;;;4968253;28;20122;-84
2022/04/12 05:17:37;;;;;;;11.85;5.68;;;;;;;;;;4971458;28;20433;-85
2022/04/12 05:20:07;;;;;;;10.43;6.80;;;;;;;;;;4967215;28;20402;-85
2022/04/12 05:22:33;;;;;;;10.07;7.68;;;;;;;;;;4980367;28;20033;-83
2022/04/12 05:24:58;;;;;;;9.63;6.45;;;;;;;;;;4972364;28;20117;-87
2022/04/12 05:27:24;;;;;;;10.88;5.75;;;;;;;;;;4983206;28;20407;-87
2022/04/12 05:29:49;;;;;;;9.98;5.57;;;;;;;;;;4965101;28;20038;-85
2022/04/12 05:32:15;;;;;;;8.80;5.35;;;;;;;;;;4962756;28;20038;-85
2022/04/12 05:34:40;;;;;;;10.65;5.65;;;;;;;;;;4977972;28;20039;-84
2022/04/12 05:37:06;;;;;;;12.93;5.97;;;;;;;;;;4968056;28;20089;-84
2022/04/12 05:39:32;;;;;;;11.23;6.35;;;;;;;;;;4972784;28;20409;-89
2022/04/12 05:42:01;;;;;;;10.30;5.57;;;;;;;;;;4971609;28;20041;-87
2022/04/12 05:44:33;;;;;;;7.50;5.10;;;;;;;;;;4971862;28;20038;-86
2022/04/12 05:47:04;;;;;;;8.20;5.43;;;;;;;;;;4967789;28;20125;-86
2022/04/12 05:49:29;;;;;;;8.63;4.75;;;;;;;;;;4968815;28;20498;-86
2022/04/12 05:51:55;;;;;;;9.00;4.88;;;;;;;;;;4970539;28;20121;-86
2022/04/12 05:54:22;;;;;;;10.70;6.38;;;;;;;;;;4983604;28;20042;-87
2022/04/12 05:56:47;;;;;;;10.13;5.60;;;;;;;;;;4964081;28;20419;-84
2022/04/12 05:59:13;;;;;;;14.23;6.75;;;;;;;;;;4987660;28;20112;-85
2022/04/12 06:01:39;;;;;;;11.43;6.65;;;;;;;;;;4970384;28;20125;-86
2022/04/12 06:04:08;;;;;;;12.02;6.95;;;;;;;;;;4966750;28;20039;-86
2022/04/12 06:06:34;;;;;;;15.93;9.10;;;;;;;;;;4966096;28;20121;-88
2022/04/12 06:09:00;;;;;;;10.02;7.15;;;;;;;;;;4967439;28;20077;-87
2022/04/12 06:11:26;;;;;;;9.00;5.95;;;;;;;;;;4971721;28;20057;-88
2022/04/12 06:13:53;;;;;;;14.48;7.90;;;;;;;;;;4965317;28;20090;-90
2022/04/12 06:16:18;;;;;;;11.82;6.78;;;;;;;;;;4967989;28;20475;-86
2022/04/12 06:18:44;;;;;;;12.50;7.10;;;;;;;;;;4967689;28;20104;-89
2022/04/12 06:21:09;;;;;;;8.25;5.63;;;;;;;;;;4967430;28;20407;-86
2022/04/12 06:23:35;;;;;;;12.57;6.30;;;;;;;;;;4971703;28;20394;-86
2022/04/12 06:26:00;;;;;;;13.80;7.28;;;;;;;;;;4971370;28;20038;-88
2022/04/12 06:28:26;;;;;;;23.20;10.00;;;;;;;;;;4974926;28;20030;-85
2022/04/12 06:30:52;;;;;;;9.85;6.75;;;;;;;;;;4987446;28;20030;-88
2022/04/12 06:33:18;;;;;;;11.75;6.78;;;;;;;;;;4962480;28;20114;-89
2022/04/12 06:35:43;;;;;;;12.07;6.10;;;;;;;;;;4971226;28;20117;-88
2022/04/12 06:38:10;;;;;;;11.02;6.75;;;;;;;;;;4963339;28;20495;-87
2022/04/12 06:40:35;;;;;;;10.13;5.38;;;;;;;;;;4972044;28;20030;-86
2022/04/12 06:43:01;;;;;;;16.85;7.90;;;;;;;;;;4968937;28;20126;-88
2022/04/12 06:45:27;;;;;;;18.25;10.80;;;;;;;;;;4987161;28;20118;-88
2022/04/12 06:47:58;;;;;;;14.57;8.05;;;;;;;;;;4968008;28;20066;-85
2022/04/12 06:50:24;;;;;;;10.18;6.80;;;;;;;;;;4988505;28;20113;-87
2022/04/12 06:52:51;;;;;;;22.52;11.27;;;;;;;;;;4972495;28;20030;-85
2022/04/12 06:55:16;;;;;;;18.45;8.68;;;;;;;;;;4968476;28;20448;-85
2022/04/12 06:57:43;;;;;;;22.60;13.10;;;;;;;;;;4969206;28;20116;-86
2022/04/12 07:00:10;;;;;;;26.23;13.05;;;;;;;;;;4973779;28;20038;-87
2022/04/12 07:02:37;;;;;;;15.88;7.80;;;;;;;;;;4967283;28;20839;-86
2022/04/12 07:05:04;;;;;;;11.88;8.38;;;;;;;;;;4988653;28;20105;-89
2022/04/12 07:07:30;;;;;;;16.40;8.05;;;;;;;;;;4973246;28;20100;-88
2022/04/12 07:09:56;;;;;;;12.23;7.82;;;;;;;;;;4966124;28;20030;-88
2022/04/12 07:12:23;;;;;;;12.27;8.32;;;;;;;;;;4969568;28;20979;-85
2022/04/12 07:14:48;;;;;;;10.75;7.65;;;;;;;;;;4973874;28;20099;-87
2022/04/12 07:17:14;;;;;;;16.80;11.23;;;;;;;;;;4972481;28;20034;-87
2022/04/12 07:19:46;;;;;;;11.60;7.68;;;;;;;;;;4989198;28;20065;-87
2022/04/12 07:22:12;;;;;;;10.70;6.82;;;;;;;;;;4986022;28;20034;-86
2022/04/12 07:24:37;;;;;;;3.15;1.98;;;;;;;;;;4983845;28;20042;-86
2022/04/12 07:27:03;;;;;;;2.28;1.85;;;;;;;;;;4969906;28;20065;-85
2022/04/12 07:29:29;;;;;;;2.75;1.90;;;;;;;;;;4986264;28;20049;-87
2022/04/12 07:31:55;;;;;;;3.83;2.10;;;;;;;;;;4987877;28;20089;-85
2022/04/12 07:34:27;;;;;;;3.78;2.50;;;;;;;;;;4990915;28;20037;-87
2022/04/12 07:36:55;;;;;;;1.77;1.48;;;;;;;;;;4988818;28;20041;-87
2022/04/12 07:39:21;;;;;;;2.72;1.70;;;;;;;;;;4972103;28;20170;-90
2022/04/12 07:41:47;;;;;;;2.80;1.55;;;;;;;;;;4970878;28;20041;-88
2022/04/12 07:44:17;;;;;;;4.82;2.17;;;;;;;;;;4970526;28;20153;-89
2022/04/12 07:46:44;;;;;;;3.17;1.50;;;;;;;;;;4985132;28;20111;-85
2022/04/12 07:49:11;;;;;;;1.77;1.58;;;;;;;;;;4968371;28;20041;-84
2022/04/12 07:51:36;;;;;;;5.75;2.40;;;;;;;;;;4988193;28;20157;-83
2022/04/12 07:54:03;;;;;;;5.05;2.75;;;;;;;;;;4967996;28;20130;-83
2022/04/12 07:56:29;;;;;;;1.92;1.60;;;;;;;;;;4971210;28;20479;-87
2022/04/12 07:58:55;;;;;;;1.95;1.40;;;;;;;;;;4985215;28;20094;-83
2022/04/12 08:01:20;;;;;;;2.30;1.48;;;;;;;;;;4983481;28;20088;-83
2022/04/12 08:03:47;;;;;;;2.17;1.52;;;;;;;;;;4988306;28;20544;-84
2022/04/12 08:06:13;;;;;;;2.72;1.40;;;;;;;;;;4989873;28;20041;-84
2022/04/12 08:08:39;;;;;;;2.75;1.73;;;;;;;;;;4969351;28;20046;-86
2022/04/12 08:11:04;;;;;;;2.08;1.40;;;;;;;;;;4969686;28;20057;-84
2022/04/12 08:13:30;;;;;;;6.68;1.63;;;;;;;;;;4985683;28;20034;-84
2022/04/12 08:15:56;;;;;;;2.28;1.30;;;;;;;;;;4971343;28;20031;-83
2022/04/12 08:18:22;;;;;;;2.35;1.40;;;;;;;;;;4966709;28;20045;-84
2022/04/12 08:20:49;;;;;;;1.80;1.27;;;;;;;;;;4982288;28;20084;-84
2022/04/12 08:23:16;;;;;;;2.85;1.20;;;;;;;;;;4967323;28;20046;-84
2022/04/12 08:25:45;;;;;;;3.30;1.60;;;;;;;;;;4969991;28;20092;-84
2022/04/12 08:28:10;;;;;;;1.83;1.20;;;;;;;;;;4969182;28;20046;-85
2022/04/12 08:30:38;;;;;;;1.42;1.23;;;;;;;;;;4965758;28;20411;-84
2022/04/12 08:33:04;;;;;;;2.65;1.35;;;;;;;;;;4966227;28;20488;-81
2022/04/12 08:35:30;;;;;;;3.80;1.75;;;;;;;;;;4990116;28;20066;-85
2022/04/12 08:37:55;;;;;;;3.45;2.17;;;;;;;;;;4973295;28;20038;-85
2022/04/12 08:40:21;;;;;;;4.03;1.40;;;;;;;;;;4969821;28;20061;-85
2022/04/12 08:42:47;;;;;;;2.85;1.83;;;;;;;;;;4985668;28;20483;-83
2022/04/12 08:45:12;;;;;;;3.28;1.70;;;;;;;;;;4965809;28;20046;-81
2022/04/12 08:47:39;;;;;;;3.92;2.20;;;;;;;;;;4981026;28;20483;-85
2022/04/12 08:50:06;;;;;;;2.97;1.98;;;;;;;;;;4966925;28;20038;-85
2022/04/12 08:52:32;;;;;;;2.83;1.55;;;;;;;;;;4988956;28;20465;-83
2022/04/12 08:54:58;;;;;;;4.50;1.70;;;;;;;;;;4971485;28;20037;-86
2022/04/12 08:57:27;;;;;;;2.25;1.65;;;;;;;;;;4968892;28;20039;-84
2022/04/12 08:59:53;;;;;;;2.47;1.65;;;;;;;;;;4988695;28;20096;-86
2022/04/12 09:02:22;;;;;;;3.40;2.05;;;;;;;;;;4985375;28;20034;-85
2022/04/12 09:04:47;;;;;;;2.38;1.75;;;;;;;;;;4973491;28;20547;-88
2022/04/12 09:07:13;;;;;;;2.50;1.77;;;;;;;;;;4971811;28;20106;-87
2022/04/12 09:09:42;;;;;;;3.78;1.67;;;;;;;;;;4964223;28;20073;-86
2022/04/12 09:12:13;;;;;;;3.47;1.90;;;;;;;;;;4970767;28;20073;-83
2022/04/12 09:14:54;;;;;;;2.80;1.73;;;;;;;;;;4975286;28;20114;-87
2022/04/12 09:17:36;;;;;;;3.65;2.10;;;;;;;;;;4970362;28;20030;-86
2022/04/12 09:20:11;;;;;;;3.20;1.73;;;;;;;;;;4970408;28;20685;-84
2022/04/12 09:22:37;;;;;;;3.75;2.13;;;;;;;;;;4986579;28;20038;-84
2022/04/12 09:25:05;;;;;;;2.60;1.50;;;;;;;;;;4989265;28;20482;-86
2022/04/12 09:27:33;;;;;;;2.55;1.83;;;;;;;;;;4977965;28;20038;-85
2022/04/12 09:30:01;;;;;;;2.78;1.83;;;;;;;;;;4980174;28;20045;-85
2022/04/12 09:32:29;;;;;;;3.88;2.08;;;;;;;;;;4974371;28;20396;-86
2022/04/12 09:34:56;;;;;;;4.15;2.00;;;;;;;;;;4971383;28;20034;-87
2022/04/12 09:37:30;;;;;;;4.32;2.13;;;;;;;;;;4975853;28;20030;-88
2022/04/12 09:39:58;;;;;;;2.28;1.95;;;;;;;;;;4974296;28;20056;-85
2022/04/12 09:42:36;;;;;;;3.28;1.80;;;;;;;;;;4974009;28;20383;-86
2022/04/12 09:45:04;;;;;;;2.55;1.65;;;;;;;;;;4982002;28;20506;-86
2022/04/12 09:47:31;;;;;;;3.30;1.63;;;;;;;;;;4991447;28;20062;-86
2022/04/12 09:49:56;;;;;;;2.30;1.50;;;;;;;;;;4978349;28;20108;-87
2022/04/12 09:52:24;;;;;;;2.80;1.73;;;;;;;;;;4975081;28;20514;-86
2022/04/12 09:54:51;;;;;;;3.60;1.90;;;;;;;;;;4974121;28;20038;-82
2022/04/12 09:57:17;;;;;;;2.92;1.77;;;;;;;;;;4972290;28;20035;-85
2022/04/12 09:59:44;;;;;;;1.88;1.27;;;;;;;;;;4974083;28;20662;-86
2022/04/12 10:02:11;;;;;;;2.53;1.50;;;;;;;;;;4969873;28;20037;-85
2022/04/12 10:04:38;;;;;;;3.88;1.80;;;;;;;;;;4975431;28;20069;-89
2022/04/12 10:07:06;;;;;;;1.40;1.30;;;;;;;;;;4975584;28;20463;-85
2022/04/12 10:09:36;;;;;;;2.38;1.42;;;;;;;;;;4975799;28;20859;-85
2022/04/12 10:12:02;;;;;;;2.90;1.48;;;;;;;;;;4978352;28;20509;-86
2022/04/12 10:14:30;;;;;;;6.43;1.30;;;;;;;;;;4973943;28;20037;-86
2022/04/12 10:16:57;;;;;;;2.83;1.38;;;;;;;;;;4970872;28;20554;-88
2022/04/12 10:19:23;;;;;;;2.15;1.33;;;;;;;;;;4969797;28;20131;-87
2022/04/12 10:21:51;;;;;;;1.27;1.05;;;;;;;;;;4970129;28;20494;-87
2022/04/12 10:24:18;;;;;;;2.83;1.50;;;;;;;;;;4987747;28;20479;-86
2022/04/12 10:26:45;;;;;;;1.77;1.35;;;;;;;;;;4990544;28;20033;-85
2022/04/12 10:29:13;;;;;;;4.20;1.33;;;;;;;;;;4988037;28;20471;-87
2022/04/12 10:31:52;;;;;;;2.80;1.33;;;;;;;;;;4973032;28;20430;-88
2022/04/12 10:34:18;;;;;;;3.53;1.42;;;;;;;;;;4972000;28;20038;-87
2022/04/12 10:37:08;;;;;;;1.95;1.30;;;;;;;;;;4973892;28;20037;-87
2022/04/12 10:39:37;;;;;;;2.75;1.33;;;;;;;;;;4975880;28;20104;-86
2022/04/12 10:42:08;;;;;;;4.15;1.42;;;;;;;;;;4973380;28;20077;-88
2022/04/12 10:44:56;;;;;;;1.58;1.10;;;;;;;;;;4975390;28;20073;-85
2022/04/12 10:47:34;;;;;;;3.30;1.35;;;;;;;;;;4972836;28;20126;-86
2022/04/12 10:50:17;;;;;;;2.97;1.30;;;;;;;;;;4991901;28;20061;-87
2022/04/12 10:52:47;;;;;;;3.50;1.35;;;;;;;;;;4973914;28;20103;-86
2022/04/12 10:55:22;;;;;;;2.08;1.50;;;;;;;;;;4972667;28;20046;-88
2022/04/12 10:57:51;;;;;;;3.88;1.98;;;;;;;;;;4973860;28;20049;-86
2022/04/12 11:00:21;;;;;;;3.42;1.33;;;;;;;;;;4969694;28;20034;-86
2022/04/12 11:03:01;;;;;;;4.45;1.48;;;;;;;;;;4973829;28;20041;-84
2022/04/12 11:05:33;;;;;;;3.28;1.10;;;;;;;;;;4972046;28;20065;-86
2022/04/12 11:08:04;;;;;;;2.47;1.40;;;;;;;;;;4976095;28;20109;-85
2022/04/12 11:10:33;;;;;;;2.22;1.00;;;;;;;;;;4971426;28;20038;-86
2022/04/12 11:13:10;;;;;;;1.50;1.30;;;;;;;;;;4974633;28;20097;-84
2022/04/12 11:15:40;;;;;;;2.67;1.55;;;;;;;;;;4970603;28;20054;-88
2022/04/12 11:18:07;;;;;;;3.50;1.77;;;;;;;;;;4974668;28;20034;-85
2022/04/12 11:20:33;;;;;;;2.58;1.25;;;;;;;;;;4968086;28;20431;-91
2022/04/12 11:23:09;;;;;;;3.30;1.45;;;;;;;;;;4973232;28;20041;-86
2022/04/12 11:25:44;;;;;;;1.42;1.10;;;;;;;;;;4969980;28;20157;-86
2022/04/12 11:28:12;;;;;;;3.25;2.10;;;;;;;;;;4970507;28;20076;-86
2022/04/12 11:30:54;;;;;;;4.32;1.15;;;;;;;;;;4972064;28;20034;-86
2022/04/12 11:33:25;;;;;;;5.88;2.42;;;;;;;;;;4990106;28;20034;-86
2022/04/12 11:35:52;;;;;;;7.78;4.05;;;;;;;;;;4968101;28;20121;-86
2022/04/12 11:38:24;;;;;;;11.15;5.57;;;;;;;;;;4971373;28;20042;-86
2022/04/12 11:40:52;;;;;;;9.13;3.60;;;;;;;;;;4990308;28;20046;-87
2022/04/12 11:43:22;;;;;;;3.95;2.13;;;;;;;;;;4986682;28;20443;-86
2022/04/12 11:45:50;;;;;;;;;;;;;;;;;;4973858;28;20032;-85
2022/04/12 11:48:16;;;;;;;1.92;1.08;;;;;;;;;;4970652;28;20305;-84
2022/04/12 11:50:52;;;;;;;3.13;1.48;;;;;;;;;;4966281;28;20096;-84
2022/04/12 11:53:21;;;;;;;1.98;1.17;;;;;;;;;;4987436;28;20044;-85
2022/04/12 11:55:50;;;;;;;1.65;1.00;;;;;;;;;;4984027;28;20034;-88
2022/04/12 11:58:19;;;;;;;4.05;2.20;;;;;;;;;;4986495;28;20034;-88
2022/04/12 12:00:45;;;;;;;1.50;1.00;;;;;;;;;;4968875;28;20069;-87
2022/04/12 12:03:17;;;;;;;12.05;7.10;;;;;;;;;;4987549;28;20030;-88
2022/04/12 12:05:45;;;;;;;3.55;1.75;;;;;;;;;;4973254;28;20034;-86
2022/04/12 12:08:12;;;;;;;3.20;1.60;;;;;;;;;;4986103;28;20050;-85
2022/04/12 12:10:38;;;;;;;2.25;1.48;;;;;;;;;;4987142;28;20069;-85
2022/04/12 12:13:07;;;;;;;2.78;1.50;;;;;;;;;;4972069;28;20126;-87
2022/04/12 12:15:34;;;;;;;2.83;1.80;;;;;;;;;;4967940;28;20038;-88
2022/04/12 12:18:06;;;;;;;2.08;1.52;;;;;;;;;;4974198;28;20038;-86
2022/04/12 12:20:36;;;;;;;1.70;0.98;;;;;;;;;;4969707;28;20042;-88
2022/04/12 12:23:07;;;;;;;1.58;1.10;;;;;;;;;;4963596;28;20041;-84
2022/04/12 12:25:46;;;;;;;3.58;1.23;;;;;;;;;;4982671;28;20399;-88
2022/04/12 12:28:11;;;;;;;2.15;1.00;;;;;;;;;;4967126;28;20479;-86
2022/04/12 12:30:37;;;;;;;1.85;1.10;;;;;;;;;;4986146;28;20041;-89
2022/04/12 12:33:02;;;;;;;3.38;1.10;;;;;;;;;;4986655;28;20446;-85
2022/04/12 12:35:29;;;;;;;1.70;0.90;;;;;;;;;;4965625;28;20106;-87
2022/04/12 12:38:12;;;;;;;2.33;0.90;;;;;;;;;;4986998;28;20045;-91
2022/04/12 12:40:38;;;;;;;1.70;1.08;;;;;;;;;;4966699;28;20035;-84
2022/04/12 12:43:06;;;;;;;1.90;0.90;;;;;;;;;;4989842;28;20046;-90
2022/04/12 12:45:34;;;;;;;1.90;0.90;;;;;;;;;;4985945;28;20475;-85
2022/04/12 12:48:00;;;;;;;1.55;1.00;;;;;;;;;;4970638;28;20479;-89
2022/04/12 12:50:27;;;;;;;1.40;1.00;;;;;;;;;;4966284;28;20034;-89
2022/04/12 12:53:00;;;;;;;1.63;1.02;;;;;;;;;;4963248;28;20039;-90
2022/04/12 12:55:28;;;;;;;2.47;1.05;;;;;;;;;;4985954;28;20030;-87
2022/04/12 12:58:03;;;;;;;2.42;1.08;;;;;;;;;;4986099;28;20034;-88
2022/04/12 13:00:29;;;;;;;2.80;1.08;;;;;;;;;;4980747;28;20061;-87
2022/04/12 13:03:05;;;;;;;1.48;0.88;;;;;;;;;;4970040;28;20038;-87
2022/04/12 13:05:31;;;;;;;1.27;0.88;;;;;;;;;;4969665;28;20042;-87
2022/04/12 13:07:59;;;;;;;1.40;0.90;;;;;;;;;;4969589;28;20050;-90
2022/04/12 13:10:27;;;;;;;2.80;0.80;;;;;;;;;;4964742;28;20070;-86
2022/04/12 13:12:52;;;;;;;2.63;1.10;;;;;;;;;;4970318;28;20457;-89
2022/04/12 13:15:19;;;;;;;2.60;1.10;;;;;;;;;;4984932;28;20039;-84
2022/04/12 13:17:44;;;;;;;3.45;1.00;;;;;;;;;;4986511;28;20063;-88
2022/04/12 13:20:12;;;;;;;1.25;0.90;;;;;;;;;;4969246;28;20069;-85
2022/04/12 13:22:38;;;;;;;3.67;1.20;;;;;;;;;;4968587;28;20041;-89
2022/04/12 13:25:05;;;;;;;2.78;0.93;;;;;;;;;;4986706;28;20101;-89
2022/04/12 13:27:31;;;;;;;1.70;1.00;;;;;;;;;;4984617;28;20038;-86
2022/04/12 13:29:57;;;;;;;1.58;0.75;;;;;;;;;;4969402;28;20046;-88
2022/04/12 13:32:23;;;;;;;1.40;1.00;;;;;;;;;;4967294;28;20510;-86
2022/04/12 13:34:50;;;;;;;1.58;1.00;;;;;;;;;;4975819;28;20040;-88
2022/04/12 13:37:20;;;;;;;1.67;0.90;;;;;;;;;;4971961;28;20068;-86
2022/04/12 13:39:51;;;;;;;2.13;1.08;;;;;;;;;;4968642;28;20106;-88
2022/04/12 13:42:19;;;;;;;2.33;1.15;;;;;;;;;;4971952;28;20034;-88
2022/04/12 13:44:49;;;;;;;2.58;1.27;;;;;;;;;;4970901;28;20589;-84
2022/04/12 13:47:16;;;;;;;2.30;1.38;;;;;;;;;;4990596;28;20037;-84
2022/04/12 13:49:42;;;;;;;3.50;1.60;;;;;;;;;;4985823;28;20030;-84
2022/04/12 13:52:08;;;;;;;2.92;1.23;;;;;;;;;;4969692;28;20045;-87
2022/04/12 13:54:33;;;;;;;2.50;1.15;;;;;;;;;;4972306;28;20907;-85
2022/04/12 13:56:59;;;;;;;2.65;1.55;;;;;;;;;;4990819;28;20034;-86
2022/04/12 13:59:25;;;;;;;2.00;1.20;;;;;;;;;;4974313;28;20138;-86
2022/04/12 14:01:52;;;;;;;1.77;1.10;;;;;;;;;;4972440;28;20039;-87
2022/04/12 14:04:18;;;;;;;3.53;1.38;;;;;;;;;;4989398;28;20038;-84
2022/04/12 14:06:44;;;;;;;1.83;1.27;;;;;;;;;;4969044;28;20046;-88
2022/04/12 14:09:12;;;;;;;1.88;1.10;;;;;;;;;;4986670;28;20068;-88
2022/04/12 14:11:42;;;;;;;3.85;1.10;;;;;;;;;;4980313;28;20035;-89
2022/04/12 14:14:13;;;;;;;2.40;1.33;;;;;;;;;;4995805;28;20085;-87
2022/04/12 14:16:44;;;;;;;2.35;1.20;;;;;;;;;;4971624;28;20061;-87
2022/04/12 14:19:11;;;;;;;4.45;2.30;;;;;;;;;;4992234;28;20433;-90
2022/04/12 14:21:48;;;;;;;6.45;3.40;;;;;;;;;;4967032;28;20038;-89
2022/04/12 14:24:17;;;;;;;4.55;2.70;;;;;;;;;;4974847;28;20392;-88
2022/04/12 14:26:43;;;;;;;4.97;2.35;;;;;;;;;;4983329;28;20038;-86
2022/04/12 14:29:09;;;;;;;1.92;1.33;;;;;;;;;;4972454;28;20045;-88
2022/04/12 14:31:43;;;;;;;6.03;3.30;;;;;;;;;;4966420;28;20042;-88
2022/04/12 14:34:19;;;;;;;5.40;3.53;;;;;;;;;;4988609;28;20041;-89
2022/04/12 14:36:45;;;;;;;5.80;4.30;;;;;;;;;;4974644;28;20038;-87
2022/04/12 14:39:11;;;;;;;5.28;2.72;;;;;;;;;;4990531;28;20088;-87
2022/04/12 14:41:36;;;;;;;5.38;1.73;;;;;;;;;;4974076;28;20406;-87
2022/04/12 14:44:05;;;;;;;4.97;3.05;;;;;;;;;;4974361;28;20038;-88